sensor_id;sensor_type;location;lat;lon;timestamp;temperature;humidity
51029;DHT22;37054;52.054;8.600;2022-10-31T00:01:22;17.80;56.30
51029;DHT22;37054;52.054;8.600;2022-10-31T00:03:48;17.80;56.30
51029;DHT22;37054;52.054;8.600;2022-10-31T00:06:14;17.80;56.20
51029;DHT22;37054;52.054;8.600;2022-10-31T00:08:39;17.80;56.20
51029;DHT22;37054;52.054;8.600;2022-10-31T00:11:08;17.80;56.10
51029;DHT22;37054;52.054;8.600;2022-10-31T00:13:34;17.80;56.10
51029;DHT22;37054;52.054;8.600;2022-10-31T00:16:00;17.70;56.20
51029;DHT22;37054;52.054;8.600;2022-10-31T00:18:25;17.70;56.20
51029;DHT22;37054;52.054;8.600;2022-10-31T00:21:01;17.70;56.20
51029;DHT22;37054;52.054;8.600;2022-10-31T00:23:26;17.70;56.20
51029;DHT22;37054;52.054;8.600;2022-10-31T00:25:52;17.70;56.50
51029;DHT22;37054;52.054;8.600;2022-10-31T00:28:17;17.60;57.10
51029;DHT22;37054;52.054;8.600;2022-10-31T00:30:43;17.70;57.00
51029;DHT22;37054;52.054;8.600;2022-10-31T00:33:09;17.60;56.80
51029;DHT22;37054;52.054;8.600;2022-10-31T00:35:34;17.60;56.70
51029;DHT22;37054;52.054;8.600;2022-10-31T00:38:00;17.60;56.50
51029;DHT22;37054;52.054;8.600;2022-10-31T00:40:25;17.60;56.50
51029;DHT22;37054;52.054;8.600;2022-10-31T00:42:50;17.60;56.50
51029;DHT22;37054;52.054;8.600;2022-10-31T00:45:16;17.50;56.50
51029;DHT22;37054;52.054;8.600;2022-10-31T00:47:41;17.50;56.50
51029;DHT22;37054;52.054;8.600;2022-10-31T00:50:07;17.50;56.50
51029;DHT22;37054;52.054;8.600;2022-10-31T00:52:33;17.40;56.50
51029;DHT22;37054;52.054;8.600;2022-10-31T00:54:58;17.40;56.60
51029;DHT22;37054;52.054;8.600;2022-10-31T00:57:24;17.40;56.60
51029;DHT22;37054;52.054;8.600;2022-10-31T00:59:49;17.30;56.60
51029;DHT22;37054;52.054;8.600;2022-10-31T01:02:15;17.30;57.00
51029;DHT22;37054;52.054;8.600;2022-10-31T01:04:41;17.30;56.90
51029;DHT22;37054;52.054;8.600;2022-10-31T01:07:06;17.30;56.80
51029;DHT22;37054;52.054;8.600;2022-10-31T01:09:32;17.30;56.80
51029;DHT22;37054;52.054;8.600;2022-10-31T01:11:57;17.30;56.80
51029;DHT22;37054;52.054;8.600;2022-10-31T01:14:23;17.30;56.80
51029;DHT22;37054;52.054;8.600;2022-10-31T01:16:48;17.30;56.80
51029;DHT22;37054;52.054;8.600;2022-10-31T01:19:14;17.30;57.10
51029;DHT22;37054;52.054;8.600;2022-10-31T01:21:39;17.20;57.10
51029;DHT22;37054;52.054;8.600;2022-10-31T01:24:05;17.20;57.10
51029;DHT22;37054;52.054;8.600;2022-10-31T01:26:31;17.20;57.00
51029;DHT22;37054;52.054;8.600;2022-10-31T01:28:57;17.10;56.90
51029;DHT22;37054;52.054;8.600;2022-10-31T01:31:25;17.10;57.10
51029;DHT22;37054;52.054;8.600;2022-10-31T01:33:51;17.00;57.10
51029;DHT22;37054;52.054;8.600;2022-10-31T01:38:42;17.00;56.90
51029;DHT22;37054;52.054;8.600;2022-10-31T01:41:08;17.00;56.90
51029;DHT22;37054;52.054;8.600;2022-10-31T01:43:41;16.90;57.00
51029;DHT22;37054;52.054;8.600;2022-10-31T01:46:07;16.90;56.90
51029;DHT22;37054;52.054;8.600;2022-10-31T01:48:32;16.80;57.00
51029;DHT22;37054;52.054;8.600;2022-10-31T01:50:58;16.80;56.90
51029;DHT22;37054;52.054;8.600;2022-10-31T01:53:23;16.80;56.90
51029;DHT22;37054;52.054;8.600;2022-10-31T01:55:49;16.80;56.90
51029;DHT22;37054;52.054;8.600;2022-10-31T01:58:16;16.70;56.80
51029;DHT22;37054;52.054;8.600;2022-10-31T02:00:44;16.70;56.70
51029;DHT22;37054;52.054;8.600;2022-10-31T02:03:11;16.60;56.80
51029;DHT22;37054;52.054;8.600;2022-10-31T02:05:36;16.60;56.90
51029;DHT22;37054;52.054;8.600;2022-10-31T02:10:46;16.50;56.80
51029;DHT22;37054;52.054;8.600;2022-10-31T02:13:12;16.40;56.90
51029;DHT22;37054;52.054;8.600;2022-10-31T02:15:38;16.30;56.90
51029;DHT22;37054;52.054;8.600;2022-10-31T02:18:04;16.30;56.90
51029;DHT22;37054;52.054;8.600;2022-10-31T02:20:32;16.30;56.90
51029;DHT22;37054;52.054;8.600;2022-10-31T02:23:10;16.20;56.90
51029;DHT22;37054;52.054;8.600;2022-10-31T02:33:23;16.20;57.00
51029;DHT22;37054;52.054;8.600;2022-10-31T02:40:53;16.20;57.10
51029;DHT22;37054;52.054;8.600;2022-10-31T02:43:26;16.20;57.10
51029;DHT22;37054;52.054;8.600;2022-10-31T02:48:18;16.20;57.20
51029;DHT22;37054;52.054;8.600;2022-10-31T02:50:55;16.20;57.20
51029;DHT22;37054;52.054;8.600;2022-10-31T02:53:22;16.20;57.20
51029;DHT22;37054;52.054;8.600;2022-10-31T02:55:54;16.20;57.30
51029;DHT22;37054;52.054;8.600;2022-10-31T02:58:21;16.30;57.40
51029;DHT22;37054;52.054;8.600;2022-10-31T03:01:02;16.40;57.40
51029;DHT22;37054;52.054;8.600;2022-10-31T03:03:32;16.50;57.50
51029;DHT22;37054;52.054;8.600;2022-10-31T03:06:09;16.60;57.40
51029;DHT22;37054;52.054;8.600;2022-10-31T03:11:08;16.80;57.40
51029;DHT22;37054;52.054;8.600;2022-10-31T03:13:51;17.00;57.30
51029;DHT22;37054;52.054;8.600;2022-10-31T03:19:02;17.20;57.20
51029;DHT22;37054;52.054;8.600;2022-10-31T03:23:57;17.30;57.00
51029;DHT22;37054;52.054;8.600;2022-10-31T03:26:24;17.40;57.00
51029;DHT22;37054;52.054;8.600;2022-10-31T03:28:54;17.50;57.00
51029;DHT22;37054;52.054;8.600;2022-10-31T03:31:23;17.50;57.00
51029;DHT22;37054;52.054;8.600;2022-10-31T03:33:50;17.60;56.90
51029;DHT22;37054;52.054;8.600;2022-10-31T03:36:17;17.60;56.80
51029;DHT22;37054;52.054;8.600;2022-10-31T03:38:43;17.70;56.70
51029;DHT22;37054;52.054;8.600;2022-10-31T03:41:11;17.70;56.60
51029;DHT22;37054;52.054;8.600;2022-10-31T03:43:38;17.60;56.60
51029;DHT22;37054;52.054;8.600;2022-10-31T03:46:05;17.60;56.60
51029;DHT22;37054;52.054;8.600;2022-10-31T03:48:31;17.50;56.50
51029;DHT22;37054;52.054;8.600;2022-10-31T03:53:24;17.30;56.50
51029;DHT22;37054;52.054;8.600;2022-10-31T03:56:01;17.30;56.50
51029;DHT22;37054;52.054;8.600;2022-10-31T03:58:28;17.10;56.50
51029;DHT22;37054;52.054;8.600;2022-10-31T04:00:54;17.00;56.50
51029;DHT22;37054;52.054;8.600;2022-10-31T04:03:25;16.90;56.60
51029;DHT22;37054;52.054;8.600;2022-10-31T04:05:52;16.80;56.80
51029;DHT22;37054;52.054;8.600;2022-10-31T04:08:20;16.80;56.90
51029;DHT22;37054;52.054;8.600;2022-10-31T04:10:46;16.70;57.00
51029;DHT22;37054;52.054;8.600;2022-10-31T04:13:14;16.60;57.10
51029;DHT22;37054;52.054;8.600;2022-10-31T04:15:41;16.60;57.10
51029;DHT22;37054;52.054;8.600;2022-10-31T04:18:07;16.50;57.20
51029;DHT22;37054;52.054;8.600;2022-10-31T04:20:37;16.50;57.30
51029;DHT22;37054;52.054;8.600;2022-10-31T04:23:05;16.40;57.30
51029;DHT22;37054;52.054;8.600;2022-10-31T04:25:30;16.30;57.30
51029;DHT22;37054;52.054;8.600;2022-10-31T04:27:56;16.30;57.40
51029;DHT22;37054;52.054;8.600;2022-10-31T04:30:21;16.30;57.40
51029;DHT22;37054;52.054;8.600;2022-10-31T04:32:47;16.20;57.30
51029;DHT22;37054;52.054;8.600;2022-10-31T04:35:12;16.20;57.30
51029;DHT22;37054;52.054;8.600;2022-10-31T04:37:38;16.10;57.30
51029;DHT22;37054;52.054;8.600;2022-10-31T04:40:04;16.10;57.30
51029;DHT22;37054;52.054;8.600;2022-10-31T04:42:29;16.00;57.20
51029;DHT22;37054;52.054;8.600;2022-10-31T04:44:55;16.00;57.20
51029;DHT22;37054;52.054;8.600;2022-10-31T04:47:21;15.90;57.30
51029;DHT22;37054;52.054;8.600;2022-10-31T04:49:46;15.90;57.30
51029;DHT22;37054;52.054;8.600;2022-10-31T04:52:12;15.80;57.30
51029;DHT22;37054;52.054;8.600;2022-10-31T04:54:37;15.80;57.40
51029;DHT22;37054;52.054;8.600;2022-10-31T04:57:03;15.70;57.50
51029;DHT22;37054;52.054;8.600;2022-10-31T04:59:28;15.70;57.50
51029;DHT22;37054;52.054;8.600;2022-10-31T05:01:54;15.70;57.50
51029;DHT22;37054;52.054;8.600;2022-10-31T05:04:20;15.60;57.60
51029;DHT22;37054;52.054;8.600;2022-10-31T05:06:45;15.50;57.60
51029;DHT22;37054;52.054;8.600;2022-10-31T05:09:11;15.50;57.50
51029;DHT22;37054;52.054;8.600;2022-10-31T05:11:36;15.40;57.50
51029;DHT22;37054;52.054;8.600;2022-10-31T05:14:02;15.40;57.40
51029;DHT22;37054;52.054;8.600;2022-10-31T05:16:27;15.30;57.50
51029;DHT22;37054;52.054;8.600;2022-10-31T05:18:53;15.30;57.50
51029;DHT22;37054;52.054;8.600;2022-10-31T05:21:19;15.30;57.60
51029;DHT22;37054;52.054;8.600;2022-10-31T05:23:44;15.20;57.70
51029;DHT22;37054;52.054;8.600;2022-10-31T05:26:10;15.20;57.70
51029;DHT22;37054;52.054;8.600;2022-10-31T05:28:35;15.20;57.80
51029;DHT22;37054;52.054;8.600;2022-10-31T05:31:01;15.10;57.90
51029;DHT22;37054;52.054;8.600;2022-10-31T05:33:26;15.10;57.90
51029;DHT22;37054;52.054;8.600;2022-10-31T05:35:52;15.10;57.90
51029;DHT22;37054;52.054;8.600;2022-10-31T05:38:17;15.10;57.90
51029;DHT22;37054;52.054;8.600;2022-10-31T05:40:43;15.10;57.90
51029;DHT22;37054;52.054;8.600;2022-10-31T05:43:08;15.10;57.90
51029;DHT22;37054;52.054;8.600;2022-10-31T05:45:34;15.10;58.10
51029;DHT22;37054;52.054;8.600;2022-10-31T05:48:00;15.10;58.10
51029;DHT22;37054;52.054;8.600;2022-10-31T05:50:26;15.10;58.10
51029;DHT22;37054;52.054;8.600;2022-10-31T05:52:56;15.10;58.20
51029;DHT22;37054;52.054;8.600;2022-10-31T05:55:22;15.10;58.20
51029;DHT22;37054;52.054;8.600;2022-10-31T05:57:48;15.10;58.20
51029;DHT22;37054;52.054;8.600;2022-10-31T06:00:13;15.10;58.40
51029;DHT22;37054;52.054;8.600;2022-10-31T06:02:39;15.10;58.50
51029;DHT22;37054;52.054;8.600;2022-10-31T06:05:04;15.10;58.40
51029;DHT22;37054;52.054;8.600;2022-10-31T06:07:33;15.10;58.40
51029;DHT22;37054;52.054;8.600;2022-10-31T06:09:59;15.10;58.40
51029;DHT22;37054;52.054;8.600;2022-10-31T06:12:24;15.10;58.30
51029;DHT22;37054;52.054;8.600;2022-10-31T06:14:50;15.10;58.30
51029;DHT22;37054;52.054;8.600;2022-10-31T06:17:16;15.10;58.40
51029;DHT22;37054;52.054;8.600;2022-10-31T06:19:41;15.10;58.40
51029;DHT22;37054;52.054;8.600;2022-10-31T06:22:06;15.10;58.50
51029;DHT22;37054;52.054;8.600;2022-10-31T06:24:32;15.10;58.80
51029;DHT22;37054;52.054;8.600;2022-10-31T06:26:58;15.10;58.80
51029;DHT22;37054;52.054;8.600;2022-10-31T06:29:23;15.10;58.70
51029;DHT22;37054;52.054;8.600;2022-10-31T06:31:50;15.20;58.60
51029;DHT22;37054;52.054;8.600;2022-10-31T06:34:16;15.20;58.50
51029;DHT22;37054;52.054;8.600;2022-10-31T06:36:41;15.20;58.50
51029;DHT22;37054;52.054;8.600;2022-10-31T06:39:07;15.20;58.70
51029;DHT22;37054;52.054;8.600;2022-10-31T06:41:32;15.10;58.70
51029;DHT22;37054;52.054;8.600;2022-10-31T06:43:58;15.20;58.60
51029;DHT22;37054;52.054;8.600;2022-10-31T06:46:24;15.20;58.60
51029;DHT22;37054;52.054;8.600;2022-10-31T06:48:49;15.20;58.70
51029;DHT22;37054;52.054;8.600;2022-10-31T06:51:15;15.20;58.70
51029;DHT22;37054;52.054;8.600;2022-10-31T06:53:40;15.30;58.70
51029;DHT22;37054;52.054;8.600;2022-10-31T06:56:06;15.30;58.70
51029;DHT22;37054;52.054;8.600;2022-10-31T06:58:31;15.40;58.90
51029;DHT22;37054;52.054;8.600;2022-10-31T07:01:00;15.40;59.10
51029;DHT22;37054;52.054;8.600;2022-10-31T07:03:26;15.50;59.30
51029;DHT22;37054;52.054;8.600;2022-10-31T07:05:51;15.60;59.70
51029;DHT22;37054;52.054;8.600;2022-10-31T07:08:17;15.80;59.90
51029;DHT22;37054;52.054;8.600;2022-10-31T07:10:42;15.90;59.90
51029;DHT22;37054;52.054;8.600;2022-10-31T07:13:09;16.00;59.90
51029;DHT22;37054;52.054;8.600;2022-10-31T07:15:36;16.20;59.90
51029;DHT22;37054;52.054;8.600;2022-10-31T07:18:02;16.30;60.00
51029;DHT22;37054;52.054;8.600;2022-10-31T07:20:28;16.50;60.30
51029;DHT22;37054;52.054;8.600;2022-10-31T07:22:54;16.70;60.50
51029;DHT22;37054;52.054;8.600;2022-10-31T07:25:20;16.90;60.70
51029;DHT22;37054;52.054;8.600;2022-10-31T07:27:45;17.20;60.90
51029;DHT22;37054;52.054;8.600;2022-10-31T07:30:13;17.40;60.80
51029;DHT22;37054;52.054;8.600;2022-10-31T07:32:43;17.70;60.70
51029;DHT22;37054;52.054;8.600;2022-10-31T07:35:09;17.80;60.40
51029;DHT22;37054;52.054;8.600;2022-10-31T07:37:35;17.90;60.20
51029;DHT22;37054;52.054;8.600;2022-10-31T07:40:01;18.10;60.00
51029;DHT22;37054;52.054;8.600;2022-10-31T07:42:27;18.20;59.90
51029;DHT22;37054;52.054;8.600;2022-10-31T07:44:53;18.40;60.20
51029;DHT22;37054;52.054;8.600;2022-10-31T07:47:18;18.60;60.60
51029;DHT22;37054;52.054;8.600;2022-10-31T07:49:44;18.90;60.70
51029;DHT22;37054;52.054;8.600;2022-10-31T07:52:10;19.30;60.80
51029;DHT22;37054;52.054;8.600;2022-10-31T07:54:35;19.70;61.20
51029;DHT22;37054;52.054;8.600;2022-10-31T07:57:01;20.10;61.40
51029;DHT22;37054;52.054;8.600;2022-10-31T07:59:27;20.50;61.10
51029;DHT22;37054;52.054;8.600;2022-10-31T08:01:52;20.80;60.80
51029;DHT22;37054;52.054;8.600;2022-10-31T08:04:18;21.30;60.60
51029;DHT22;37054;52.054;8.600;2022-10-31T08:06:43;21.60;60.40
51029;DHT22;37054;52.054;8.600;2022-10-31T08:09:09;22.00;60.20
51029;DHT22;37054;52.054;8.600;2022-10-31T08:11:35;22.30;59.40
51029;DHT22;37054;52.054;8.600;2022-10-31T08:14:00;22.50;58.60
51029;DHT22;37054;52.054;8.600;2022-10-31T08:16:26;22.60;57.80
51029;DHT22;37054;52.054;8.600;2022-10-31T08:18:52;22.80;58.00
51029;DHT22;37054;52.054;8.600;2022-10-31T08:21:21;23.00;58.10
51029;DHT22;37054;52.054;8.600;2022-10-31T08:23:46;23.20;58.00
51029;DHT22;37054;52.054;8.600;2022-10-31T08:26:12;23.30;57.90
51029;DHT22;37054;52.054;8.600;2022-10-31T08:28:37;23.50;57.90
51029;DHT22;37054;52.054;8.600;2022-10-31T08:31:03;23.70;57.80
51029;DHT22;37054;52.054;8.600;2022-10-31T08:33:28;23.80;57.50
51029;DHT22;37054;52.054;8.600;2022-10-31T08:35:54;24.00;57.30
51029;DHT22;37054;52.054;8.600;2022-10-31T08:38:19;24.00;56.90
51029;DHT22;37054;52.054;8.600;2022-10-31T08:40:47;24.10;56.70
51029;DHT22;37054;52.054;8.600;2022-10-31T08:43:13;24.10;56.20
51029;DHT22;37054;52.054;8.600;2022-10-31T08:45:40;24.10;56.10
51029;DHT22;37054;52.054;8.600;2022-10-31T08:48:06;24.00;55.60
51029;DHT22;37054;52.054;8.600;2022-10-31T08:50:34;23.90;55.10
51029;DHT22;37054;52.054;8.600;2022-10-31T08:53:01;23.80;54.90
51029;DHT22;37054;52.054;8.600;2022-10-31T08:55:27;23.60;54.70
51029;DHT22;37054;52.054;8.600;2022-10-31T08:57:58;23.50;54.80
51029;DHT22;37054;52.054;8.600;2022-10-31T09:00:24;23.50;54.90
51029;DHT22;37054;52.054;8.600;2022-10-31T09:03:06;23.50;55.10
51029;DHT22;37054;52.054;8.600;2022-10-31T09:05:32;23.50;55.10
51029;DHT22;37054;52.054;8.600;2022-10-31T09:07:59;23.50;55.30
51029;DHT22;37054;52.054;8.600;2022-10-31T09:10:25;23.60;55.40
51029;DHT22;37054;52.054;8.600;2022-10-31T09:12:55;23.80;55.50
51029;DHT22;37054;52.054;8.600;2022-10-31T09:15:21;23.90;55.20
51029;DHT22;37054;52.054;8.600;2022-10-31T09:17:47;24.10;55.00
51029;DHT22;37054;52.054;8.600;2022-10-31T09:20:13;24.30;55.00
51029;DHT22;37054;52.054;8.600;2022-10-31T09:22:38;24.60;54.50
51029;DHT22;37054;52.054;8.600;2022-10-31T09:25:04;24.80;53.90
51029;DHT22;37054;52.054;8.600;2022-10-31T09:27:30;24.90;53.00
51029;DHT22;37054;52.054;8.600;2022-10-31T09:29:55;25.00;52.30
51029;DHT22;37054;52.054;8.600;2022-10-31T09:32:21;25.00;51.40
51029;DHT22;37054;52.054;8.600;2022-10-31T09:34:47;25.00;51.40
51029;DHT22;37054;52.054;8.600;2022-10-31T09:37:12;25.00;51.30
51029;DHT22;37054;52.054;8.600;2022-10-31T09:39:38;25.00;50.40
51029;DHT22;37054;52.054;8.600;2022-10-31T09:47:00;24.80;49.30
51029;DHT22;37054;52.054;8.600;2022-10-31T09:52:30;24.80;49.10
51029;DHT22;37054;52.054;8.600;2022-10-31T09:54:56;24.80;49.10
51029;DHT22;37054;52.054;8.600;2022-10-31T09:57:32;24.80;49.00
51029;DHT22;37054;52.054;8.600;2022-10-31T09:59:59;24.70;49.20
51029;DHT22;37054;52.054;8.600;2022-10-31T10:02:27;24.70;49.10
51029;DHT22;37054;52.054;8.600;2022-10-31T10:05:01;24.80;49.10
51029;DHT22;37054;52.054;8.600;2022-10-31T10:09:57;25.20;48.50
51029;DHT22;37054;52.054;8.600;2022-10-31T10:22:42;25.70;47.80
51029;DHT22;37054;52.054;8.600;2022-10-31T10:25:14;25.80;47.30
51029;DHT22;37054;52.054;8.600;2022-10-31T10:27:58;26.10;47.20
51029;DHT22;37054;52.054;8.600;2022-10-31T10:33:00;26.70;46.90
51029;DHT22;37054;52.054;8.600;2022-10-31T10:35:29;27.00;46.70
51029;DHT22;37054;52.054;8.600;2022-10-31T10:37:57;27.20;46.30
51029;DHT22;37054;52.054;8.600;2022-10-31T10:40:24;27.50;45.70
51029;DHT22;37054;52.054;8.600;2022-10-31T10:43:01;27.80;45.20
51029;DHT22;37054;52.054;8.600;2022-10-31T10:45:46;27.90;44.60
51029;DHT22;37054;52.054;8.600;2022-10-31T10:48:42;28.10;44.20
51029;DHT22;37054;52.054;8.600;2022-10-31T10:51:13;28.20;43.80
51029;DHT22;37054;52.054;8.600;2022-10-31T10:56:36;28.50;43.20
51029;DHT22;37054;52.054;8.600;2022-10-31T10:59:03;28.70;42.90
51029;DHT22;37054;52.054;8.600;2022-10-31T11:01:29;28.80;42.30
51029;DHT22;37054;52.054;8.600;2022-10-31T11:03:54;28.90;41.40
51029;DHT22;37054;52.054;8.600;2022-10-31T11:06:23;28.90;40.60
51029;DHT22;37054;52.054;8.600;2022-10-31T11:08:51;29.00;40.60
51029;DHT22;37054;52.054;8.600;2022-10-31T11:11:27;29.20;40.30
51029;DHT22;37054;52.054;8.600;2022-10-31T11:14:03;29.30;40.10
51029;DHT22;37054;52.054;8.600;2022-10-31T11:16:31;29.40;39.10
51029;DHT22;37054;52.054;8.600;2022-10-31T11:19:07;29.60;38.80
51029;DHT22;37054;52.054;8.600;2022-10-31T11:21:33;29.70;38.00
51029;DHT22;37054;52.054;8.600;2022-10-31T11:24:03;29.70;38.00
51029;DHT22;37054;52.054;8.600;2022-10-31T11:26:29;29.50;37.90
51029;DHT22;37054;52.054;8.600;2022-10-31T11:28:58;29.40;37.90
51029;DHT22;37054;52.054;8.600;2022-10-31T11:31:24;29.30;38.40
51029;DHT22;37054;52.054;8.600;2022-10-31T11:33:53;29.30;38.60
51029;DHT22;37054;52.054;8.600;2022-10-31T11:36:22;29.20;38.40
51029;DHT22;37054;52.054;8.600;2022-10-31T11:38:48;29.10;38.30
51029;DHT22;37054;52.054;8.600;2022-10-31T11:41:16;28.80;38.60
51029;DHT22;37054;52.054;8.600;2022-10-31T11:43:49;28.80;38.60
51029;DHT22;37054;52.054;8.600;2022-10-31T11:46:18;28.60;38.70
51029;DHT22;37054;52.054;8.600;2022-10-31T11:48:47;28.30;38.90
51029;DHT22;37054;52.054;8.600;2022-10-31T11:51:13;28.10;39.40
51029;DHT22;37054;52.054;8.600;2022-10-31T11:53:50;27.80;39.90
51029;DHT22;37054;52.054;8.600;2022-10-31T11:56:16;27.60;40.10
51029;DHT22;37054;52.054;8.600;2022-10-31T11:58:42;27.30;40.40
51029;DHT22;37054;52.054;8.600;2022-10-31T12:01:21;27.10;41.00
51029;DHT22;37054;52.054;8.600;2022-10-31T12:03:54;26.90;41.30
51029;DHT22;37054;52.054;8.600;2022-10-31T12:06:26;26.70;41.70
51029;DHT22;37054;52.054;8.600;2022-10-31T12:08:53;26.60;42.00
51029;DHT22;37054;52.054;8.600;2022-10-31T12:16:28;26.20;42.80
51029;DHT22;37054;52.054;8.600;2022-10-31T12:19:00;26.20;43.10
51029;DHT22;37054;52.054;8.600;2022-10-31T12:21:51;26.10;43.10
51029;DHT22;37054;52.054;8.600;2022-10-31T12:24:27;26.10;43.40
51029;DHT22;37054;52.054;8.600;2022-10-31T12:27:01;26.00;43.70
51029;DHT22;37054;52.054;8.600;2022-10-31T12:34:40;26.20;43.70
51029;DHT22;37054;52.054;8.600;2022-10-31T12:37:15;26.20;43.30
51029;DHT22;37054;52.054;8.600;2022-10-31T12:39:44;26.20;43.20
51029;DHT22;37054;52.054;8.600;2022-10-31T12:50:01;26.10;43.30
51029;DHT22;37054;52.054;8.600;2022-10-31T12:55:23;26.00;43.40
51029;DHT22;37054;52.054;8.600;2022-10-31T12:58:10;25.90;43.40
51029;DHT22;37054;52.054;8.600;2022-10-31T13:00:38;25.80;43.60
51029;DHT22;37054;52.054;8.600;2022-10-31T13:03:17;25.80;43.80
51029;DHT22;37054;52.054;8.600;2022-10-31T13:05:46;25.70;44.00
51029;DHT22;37054;52.054;8.600;2022-10-31T13:08:23;25.70;44.00
51029;DHT22;37054;52.054;8.600;2022-10-31T13:10:52;25.50;44.00
51029;DHT22;37054;52.054;8.600;2022-10-31T13:13:23;25.50;44.30
51029;DHT22;37054;52.054;8.600;2022-10-31T13:15:50;25.40;44.40
51029;DHT22;37054;52.054;8.600;2022-10-31T13:18:23;25.50;44.60
51029;DHT22;37054;52.054;8.600;2022-10-31T13:20:55;25.50;44.60
51029;DHT22;37054;52.054;8.600;2022-10-31T13:23:29;25.60;44.60
51029;DHT22;37054;52.054;8.600;2022-10-31T13:25:55;25.60;44.50
51029;DHT22;37054;52.054;8.600;2022-10-31T13:30:53;25.60;44.70
51029;DHT22;37054;52.054;8.600;2022-10-31T13:33:24;25.60;44.60
51029;DHT22;37054;52.054;8.600;2022-10-31T13:38:41;25.70;44.70
51029;DHT22;37054;52.054;8.600;2022-10-31T13:43:48;25.80;44.60
51029;DHT22;37054;52.054;8.600;2022-10-31T13:46:25;25.80;44.70
51029;DHT22;37054;52.054;8.600;2022-10-31T13:48:51;25.70;44.70
51029;DHT22;37054;52.054;8.600;2022-10-31T13:51:24;25.70;44.60
51029;DHT22;37054;52.054;8.600;2022-10-31T13:56:17;25.70;44.70
51029;DHT22;37054;52.054;8.600;2022-10-31T13:59:03;25.60;44.70
51029;DHT22;37054;52.054;8.600;2022-10-31T14:01:29;25.60;44.80
51029;DHT22;37054;52.054;8.600;2022-10-31T14:04:00;25.40;45.00
51029;DHT22;37054;52.054;8.600;2022-10-31T14:06:41;25.30;45.10
51029;DHT22;37054;52.054;8.600;2022-10-31T14:09:24;25.30;45.30
51029;DHT22;37054;52.054;8.600;2022-10-31T14:11:51;25.20;45.40
51029;DHT22;37054;52.054;8.600;2022-10-31T14:14:17;25.10;45.60
51029;DHT22;37054;52.054;8.600;2022-10-31T14:16:43;25.00;45.80
51029;DHT22;37054;52.054;8.600;2022-10-31T14:19:14;25.00;45.90
51029;DHT22;37054;52.054;8.600;2022-10-31T14:21:41;25.00;46.10
51029;DHT22;37054;52.054;8.600;2022-10-31T14:24:14;24.90;46.30
51029;DHT22;37054;52.054;8.600;2022-10-31T14:26:50;24.80;46.40
51029;DHT22;37054;52.054;8.600;2022-10-31T14:31:43;24.80;46.80
51029;DHT22;37054;52.054;8.600;2022-10-31T14:39:31;24.60;47.10
51029;DHT22;37054;52.054;8.600;2022-10-31T14:44:44;24.50;47.50
51029;DHT22;37054;52.054;8.600;2022-10-31T14:47:29;24.40;47.60
51029;DHT22;37054;52.054;8.600;2022-10-31T14:50:04;24.30;47.70
51029;DHT22;37054;52.054;8.600;2022-10-31T14:52:34;24.30;47.90
51029;DHT22;37054;52.054;8.600;2022-10-31T14:54:59;24.20;47.90
51029;DHT22;37054;52.054;8.600;2022-10-31T14:57:30;24.20;48.00
51029;DHT22;37054;52.054;8.600;2022-10-31T14:59:58;24.20;48.00
51029;DHT22;37054;52.054;8.600;2022-10-31T15:03:00;24.10;48.20
51029;DHT22;37054;52.054;8.600;2022-10-31T15:05:16;24.10;48.20
51029;DHT22;37054;52.054;8.600;2022-10-31T15:07:52;24.10;48.40
51029;DHT22;37054;52.054;8.600;2022-10-31T15:12:50;24.00;48.60
51029;DHT22;37054;52.054;8.600;2022-10-31T15:15:20;23.90;48.70
51029;DHT22;37054;52.054;8.600;2022-10-31T15:17:51;23.80;48.70
51029;DHT22;37054;52.054;8.600;2022-10-31T15:20:19;23.80;48.80
51029;DHT22;37054;52.054;8.600;2022-10-31T15:22:45;23.80;48.80
51029;DHT22;37054;52.054;8.600;2022-10-31T15:25:14;23.80;48.80
51029;DHT22;37054;52.054;8.600;2022-10-31T15:27:41;23.80;48.90
51029;DHT22;37054;52.054;8.600;2022-10-31T15:30:23;23.70;49.00
51029;DHT22;37054;52.054;8.600;2022-10-31T15:32:49;23.70;49.00
51029;DHT22;37054;52.054;8.600;2022-10-31T15:35:19;23.60;49.10
51029;DHT22;37054;52.054;8.600;2022-10-31T15:37:45;23.60;49.20
51029;DHT22;37054;52.054;8.600;2022-10-31T15:40:15;23.60;49.20
51029;DHT22;37054;52.054;8.600;2022-10-31T15:42:41;23.50;49.20
51029;DHT22;37054;52.054;8.600;2022-10-31T15:47:38;23.40;49.30
51029;DHT22;37054;52.054;8.600;2022-10-31T15:50:05;23.40;49.30
51029;DHT22;37054;52.054;8.600;2022-10-31T15:52:39;23.40;49.30
51029;DHT22;37054;52.054;8.600;2022-10-31T15:55:15;23.40;49.30
51029;DHT22;37054;52.054;8.600;2022-10-31T15:57:45;23.40;49.30
51029;DHT22;37054;52.054;8.600;2022-10-31T16:00:24;23.40;49.30
51029;DHT22;37054;52.054;8.600;2022-10-31T16:03:04;23.30;49.30
51029;DHT22;37054;52.054;8.600;2022-10-31T16:05:37;23.30;49.30
51029;DHT22;37054;52.054;8.600;2022-10-31T16:08:03;23.30;49.30
51029;DHT22;37054;52.054;8.600;2022-10-31T16:10:32;23.20;49.30
51029;DHT22;37054;52.054;8.600;2022-10-31T16:12:57;23.30;49.30
51029;DHT22;37054;52.054;8.600;2022-10-31T16:15:25;23.20;49.30
51029;DHT22;37054;52.054;8.600;2022-10-31T16:17:51;23.10;49.30
51029;DHT22;37054;52.054;8.600;2022-10-31T16:20:27;23.00;49.40
51029;DHT22;37054;52.054;8.600;2022-10-31T16:22:53;22.90;49.50
51029;DHT22;37054;52.054;8.600;2022-10-31T16:25:22;22.90;49.60
51029;DHT22;37054;52.054;8.600;2022-10-31T16:27:51;22.80;49.90
51029;DHT22;37054;52.054;8.600;2022-10-31T16:30:30;22.80;50.00
51029;DHT22;37054;52.054;8.600;2022-10-31T16:33:00;22.70;50.10
51029;DHT22;37054;52.054;8.600;2022-10-31T16:35:33;22.70;50.30
51029;DHT22;37054;52.054;8.600;2022-10-31T16:37:59;22.60;50.30
51029;DHT22;37054;52.054;8.600;2022-10-31T16:40:25;22.60;50.40
51029;DHT22;37054;52.054;8.600;2022-10-31T16:42:50;22.60;50.50
51029;DHT22;37054;52.054;8.600;2022-10-31T16:45:17;22.50;50.40
51029;DHT22;37054;52.054;8.600;2022-10-31T16:47:44;22.40;50.70
51029;DHT22;37054;52.054;8.600;2022-10-31T16:50:20;22.40;50.70
51029;DHT22;37054;52.054;8.600;2022-10-31T16:52:46;22.30;50.80
51029;DHT22;37054;52.054;8.600;2022-10-31T16:55:13;22.30;51.00
51029;DHT22;37054;52.054;8.600;2022-10-31T16:57:38;22.30;51.40
51029;DHT22;37054;52.054;8.600;2022-10-31T17:00:08;22.30;51.50
51029;DHT22;37054;52.054;8.600;2022-10-31T17:02:37;22.20;51.50
51029;DHT22;37054;52.054;8.600;2022-10-31T17:05:03;22.20;51.60
51029;DHT22;37054;52.054;8.600;2022-10-31T17:07:28;22.20;51.60
51029;DHT22;37054;52.054;8.600;2022-10-31T17:09:54;22.10;51.60
51029;DHT22;37054;52.054;8.600;2022-10-31T17:12:19;22.20;51.70
51029;DHT22;37054;52.054;8.600;2022-10-31T17:14:47;22.10;51.80
51029;DHT22;37054;52.054;8.600;2022-10-31T17:17:14;22.10;51.90
51029;DHT22;37054;52.054;8.600;2022-10-31T17:19:39;22.00;52.00